sensor_id;sensor_type;location;lat;lon;timestamp;pressure;altitude;pressure_sealevel;temperature;humidity
71195;BME280;58908;51.426;7.714;2023-03-24T00:01:20;98380.72;;;10.65;100.00
71195;BME280;58908;51.426;7.714;2023-03-24T00:03:46;98375.78;;;10.71;100.00
71195;BME280;58908;51.426;7.714;2023-03-24T00:06:16;98369.22;;;10.66;100.00
71195;BME280;58908;51.426;7.714;2023-03-24T00:08:42;98380.59;;;10.66;100.00
71195;BME280;58908;51.426;7.714;2023-03-24T00:11:12;98366.56;;;10.66;100.00
71195;BME280;58908;51.426;7.714;2023-03-24T00:13:40;98361.91;;;10.69;100.00
71195;BME280;58908;51.426;7.714;2023-03-24T00:16:07;98364.31;;;10.72;100.00
71195;BME280;58908;51.426;7.714;2023-03-24T00:18:34;98350.28;;;10.72;100.00
71195;BME280;58908;51.426;7.714;2023-03-24T00:21:01;98345.94;;;10.82;100.00
71195;BME280;58908;51.426;7.714;2023-03-24T00:23:27;98345.84;;;10.83;100.00
71195;BME280;58908;51.426;7.714;2023-03-24T00:25:59;98344.88;;;10.84;100.00
71195;BME280;58908;51.426;7.714;2023-03-24T00:28:31;98341.97;;;10.87;100.00
71195;BME280;58908;51.426;7.714;2023-03-24T00:30:59;98343.16;;;10.94;100.00
71195;BME280;58908;51.426;7.714;2023-03-24T00:33:27;98345.56;;;10.97;100.00
71195;BME280;58908;51.426;7.714;2023-03-24T00:35:56;98337.25;;;11.02;100.00
71195;BME280;58908;51.426;7.714;2023-03-24T00:38:22;98339.66;;;11.05;100.00
71195;BME280;58908;51.426;7.714;2023-03-24T00:40:48;98327.31;;;11.05;100.00
71195;BME280;58908;51.426;7.714;2023-03-24T00:43:15;98320.72;;;11.00;100.00
71195;BME280;58908;51.426;7.714;2023-03-24T00:45:41;98319.16;;;10.97;100.00
71195;BME280;58908;51.426;7.714;2023-03-24T00:48:11;98322.25;;;11.02;100.00
71195;BME280;58908;51.426;7.714;2023-03-24T00:50:38;98314.56;;;11.10;100.00
71195;BME280;58908;51.426;7.714;2023-03-24T00:53:06;98318.50;;;11.16;100.00
71195;BME280;58908;51.426;7.714;2023-03-24T00:55:34;98309.63;;;11.17;100.00
71195;BME280;58908;51.426;7.714;2023-03-24T00:58:02;98299.50;;;11.22;100.00
71195;BME280;58908;51.426;7.714;2023-03-24T01:00:28;98291.47;;;11.23;100.00
71195;BME280;58908;51.426;7.714;2023-03-24T01:02:55;98282.84;;;11.21;100.00
71195;BME280;58908;51.426;7.714;2023-03-24T01:05:24;98281.88;;;11.22;100.00
71195;BME280;58908;51.426;7.714;2023-03-24T01:07:51;98276.81;;;11.30;100.00
71195;BME280;58908;51.426;7.714;2023-03-24T01:10:24;98271.75;;;11.27;100.00
71195;BME280;58908;51.426;7.714;2023-03-24T01:12:51;98273.31;;;11.30;100.00
71195;BME280;58908;51.426;7.714;2023-03-24T01:15:19;98256.78;;;11.28;100.00
71195;BME280;58908;51.426;7.714;2023-03-24T01:17:47;98267.66;;;11.34;100.00
71195;BME280;58908;51.426;7.714;2023-03-24T01:20:14;98268.03;;;11.30;100.00
71195;BME280;58908;51.426;7.714;2023-03-24T01:22:42;98270.22;;;11.25;100.00
71195;BME280;58908;51.426;7.714;2023-03-24T01:25:13;98254.41;;;11.25;100.00
71195;BME280;58908;51.426;7.714;2023-03-24T01:27:40;98247.94;;;11.18;100.00
71195;BME280;58908;51.426;7.714;2023-03-24T01:30:07;98251.16;;;11.21;100.00
71195;BME280;58908;51.426;7.714;2023-03-24T01:32:34;98249.88;;;11.16;100.00
71195;BME280;58908;51.426;7.714;2023-03-24T01:35:01;98246.00;;;11.20;100.00
71195;BME280;58908;51.426;7.714;2023-03-24T01:37:27;98232.50;;;11.13;100.00
71195;BME280;58908;51.426;7.714;2023-03-24T01:39:55;98240.41;;;11.13;100.00
71195;BME280;58908;51.426;7.714;2023-03-24T01:42:22;98239.00;;;11.09;100.00
71195;BME280;58908;51.426;7.714;2023-03-24T01:44:49;98227.69;;;11.18;100.00
71195;BME280;58908;51.426;7.714;2023-03-24T01:47:15;98240.03;;;11.18;100.00
71195;BME280;58908;51.426;7.714;2023-03-24T01:49:43;98240.88;;;11.18;100.00
71195;BME280;58908;51.426;7.714;2023-03-24T01:52:12;98239.59;;;11.13;100.00
71195;BME280;58908;51.426;7.714;2023-03-24T01:54:41;98243.53;;;11.18;100.00
71195;BME280;58908;51.426;7.714;2023-03-24T01:57:12;98239.44;;;11.14;100.00
71195;BME280;58908;51.426;7.714;2023-03-24T01:59:40;98256.38;;;11.12;100.00
71195;BME280;58908;51.426;7.714;2023-03-24T02:02:08;98243.44;;;11.09;100.00
71195;BME280;58908;51.426;7.714;2023-03-24T02:04:40;98234.22;;;11.03;100.00
71195;BME280;58908;51.426;7.714;2023-03-24T02:07:09;98223.22;;;10.98;100.00
71195;BME280;58908;51.426;7.714;2023-03-24T02:09:37;98218.06;;;10.97;100.00
71195;BME280;58908;51.426;7.714;2023-03-24T02:12:03;98214.47;;;10.98;100.00
71195;BME280;58908;51.426;7.714;2023-03-24T02:14:31;98196.84;;;10.98;100.00
71195;BME280;58908;51.426;7.714;2023-03-24T02:17:05;98186.16;;;11.00;100.00
71195;BME280;58908;51.426;7.714;2023-03-24T02:25:29;98181.84;;;11.19;100.00
71195;BME280;58908;51.426;7.714;2023-03-24T02:28:06;98162.53;;;11.19;100.00
71195;BME280;58908;51.426;7.714;2023-03-24T02:30:52;98168.78;;;11.18;100.00
71195;BME280;58908;51.426;7.714;2023-03-24T02:33:31;98170.59;;;11.17;100.00
71195;BME280;58908;51.426;7.714;2023-03-24T02:41:39;98145.22;;;11.26;100.00
71195;BME280;58908;51.426;7.714;2023-03-24T02:44:10;98125.88;;;11.25;100.00
71195;BME280;58908;51.426;7.714;2023-03-24T02:46:47;98120.88;;;11.22;100.00
71195;BME280;58908;51.426;7.714;2023-03-24T02:49:18;98112.56;;;11.27;100.00
71195;BME280;58908;51.426;7.714;2023-03-24T02:51:47;98111.72;;;11.26;100.00
71195;BME280;58908;51.426;7.714;2023-03-24T02:54:17;98103.09;;;11.24;100.00
71195;BME280;58908;51.426;7.714;2023-03-24T02:56:48;98099.66;;;11.24;100.00
71195;BME280;58908;51.426;7.714;2023-03-24T02:59:18;98081.47;;;11.30;100.00
71195;BME280;58908;51.426;7.714;2023-03-24T03:01:46;98087.56;;;11.31;100.00
71195;BME280;58908;51.426;7.714;2023-03-24T03:04:18;98079.81;;;11.29;100.00
71195;BME280;58908;51.426;7.714;2023-03-24T03:06:48;98071.50;;;11.34;100.00
71195;BME280;58908;51.426;7.714;2023-03-24T03:09:17;98083.97;;;11.32;100.00
71195;BME280;58908;51.426;7.714;2023-03-24T03:11:45;98077.63;;;11.44;100.00
71195;BME280;58908;51.426;7.714;2023-03-24T03:14:14;98073.56;;;11.40;100.00
71195;BME280;58908;51.426;7.714;2023-03-24T03:16:43;98074.56;;;11.48;100.00
71195;BME280;58908;51.426;7.714;2023-03-24T03:19:14;98075.81;;;11.44;100.00
71195;BME280;58908;51.426;7.714;2023-03-24T03:21:43;98069.75;;;11.53;100.00
71195;BME280;58908;51.426;7.714;2023-03-24T03:24:10;98078.56;;;11.63;100.00
71195;BME280;58908;51.426;7.714;2023-03-24T03:26:39;98071.34;;;11.65;100.00
71195;BME280;58908;51.426;7.714;2023-03-24T03:29:07;98068.97;;;11.62;100.00
71195;BME280;58908;51.426;7.714;2023-03-24T03:31:39;98064.91;;;11.58;100.00
71195;BME280;58908;51.426;7.714;2023-03-24T03:34:08;98060.09;;;11.73;100.00
71195;BME280;58908;51.426;7.714;2023-03-24T03:36:38;98057.03;;;11.77;100.00
71195;BME280;58908;51.426;7.714;2023-03-24T03:39:10;98069.16;;;11.80;100.00
71195;BME280;58908;51.426;7.714;2023-03-24T03:41:39;98061.34;;;11.88;100.00
71195;BME280;58908;51.426;7.714;2023-03-24T03:44:07;98053.72;;;11.75;100.00
71195;BME280;58908;51.426;7.714;2023-03-24T03:46:33;98062.84;;;11.71;100.00
71195;BME280;58908;51.426;7.714;2023-03-24T03:49:05;98069.00;;;11.81;100.00
71195;BME280;58908;51.426;7.714;2023-03-24T03:51:32;98064.84;;;11.79;100.00
71195;BME280;58908;51.426;7.714;2023-03-24T03:53:59;98068.31;;;11.79;100.00
71195;BME280;58908;51.426;7.714;2023-03-24T03:56:27;98070.25;;;11.77;100.00
71195;BME280;58908;51.426;7.714;2023-03-24T03:58:56;98065.66;;;11.79;100.00
71195;BME280;58908;51.426;7.714;2023-03-24T04:01:23;98069.41;;;11.77;100.00
71195;BME280;58908;51.426;7.714;2023-03-24T04:06:35;98063.00;;;11.70;100.00
71195;BME280;58908;51.426;7.714;2023-03-24T04:09:03;98073.56;;;11.70;100.00
71195;BME280;58908;51.426;7.714;2023-03-24T04:11:35;98064.81;;;11.69;100.00
71195;BME280;58908;51.426;7.714;2023-03-24T04:14:18;98076.63;;;11.75;100.00
71195;BME280;58908;51.426;7.714;2023-03-24T04:16:52;98065.25;;;11.74;100.00
71195;BME280;58908;51.426;7.714;2023-03-24T04:19:27;98073.19;;;11.74;100.00
71195;BME280;58908;51.426;7.714;2023-03-24T04:22:03;98085.81;;;11.71;100.00
71195;BME280;58908;51.426;7.714;2023-03-24T04:24:36;98079.84;;;11.69;100.00
71195;BME280;58908;51.426;7.714;2023-03-24T04:27:06;98080.50;;;11.61;100.00
71195;BME280;58908;51.426;7.714;2023-03-24T04:29:37;98090.34;;;11.59;100.00
71195;BME280;58908;51.426;7.714;2023-03-24T04:32:08;98081.44;;;11.60;100.00
71195;BME280;58908;51.426;7.714;2023-03-24T04:34:39;98088.72;;;11.68;100.00
71195;BME280;58908;51.426;7.714;2023-03-24T04:37:11;98086.78;;;11.70;100.00
71195;BME280;58908;51.426;7.714;2023-03-24T04:39:39;98085.25;;;11.67;100.00
71195;BME280;58908;51.426;7.714;2023-03-24T04:42:09;98080.66;;;11.69;100.00
71195;BME280;58908;51.426;7.714;2023-03-24T04:44:36;98078.69;;;11.62;100.00
71195;BME280;58908;51.426;7.714;2023-03-24T04:47:06;98063.69;;;11.62;100.00
71195;BME280;58908;51.426;7.714;2023-03-24T04:49:35;98071.34;;;11.65;100.00
71195;BME280;58908;51.426;7.714;2023-03-24T04:52:02;98072.59;;;11.61;100.00
71195;BME280;58908;51.426;7.714;2023-03-24T04:54:29;98082.94;;;11.53;100.00
71195;BME280;58908;51.426;7.714;2023-03-24T04:56:56;98090.19;;;11.51;100.00
71195;BME280;58908;51.426;7.714;2023-03-24T04:59:24;98096.53;;;11.49;100.00
71195;BME280;58908;51.426;7.714;2023-03-24T05:01:51;98098.09;;;11.51;100.00
71195;BME280;58908;51.426;7.714;2023-03-24T05:04:20;98094.31;;;11.54;100.00
71195;BME280;58908;51.426;7.714;2023-03-24T05:06:47;98105.03;;;11.52;100.00
71195;BME280;58908;51.426;7.714;2023-03-24T05:09:14;98124.91;;;11.47;100.00
71195;BME280;58908;51.426;7.714;2023-03-24T05:11:43;98126.97;;;11.43;100.00
71195;BME280;58908;51.426;7.714;2023-03-24T05:14:09;98128.91;;;11.41;100.00
71195;BME280;58908;51.426;7.714;2023-03-24T05:16:36;98134.31;;;11.40;100.00
71195;BME280;58908;51.426;7.714;2023-03-24T05:19:02;98148.34;;;11.40;100.00
71195;BME280;58908;51.426;7.714;2023-03-24T05:21:29;98162.06;;;11.34;100.00
71195;BME280;58908;51.426;7.714;2023-03-24T05:23:55;98161.47;;;11.31;100.00
71195;BME280;58908;51.426;7.714;2023-03-24T05:26:22;98170.06;;;11.23;100.00
71195;BME280;58908;51.426;7.714;2023-03-24T05:28:49;98175.59;;;11.20;100.00
71195;BME280;58908;51.426;7.714;2023-03-24T05:31:16;98180.88;;;11.20;100.00
71195;BME280;58908;51.426;7.714;2023-03-24T05:33:42;98182.56;;;11.21;100.00
71195;BME280;58908;51.426;7.714;2023-03-24T05:36:09;98191.56;;;11.19;100.00
71195;BME280;58908;51.426;7.714;2023-03-24T05:38:35;98202.00;;;11.20;100.00
71195;BME280;58908;51.426;7.714;2023-03-24T05:41:02;98205.59;;;11.19;100.00
71195;BME280;58908;51.426;7.714;2023-03-24T05:43:29;98207.06;;;11.12;100.00
71195;BME280;58908;51.426;7.714;2023-03-24T05:45:59;98218.84;;;11.08;100.00
71195;BME280;58908;51.426;7.714;2023-03-24T05:48:25;98230.13;;;11.10;100.00
71195;BME280;58908;51.426;7.714;2023-03-24T05:50:51;98238.41;;;11.06;100.00
71195;BME280;58908;51.426;7.714;2023-03-24T05:53:18;98239.97;;;11.08;100.00
71195;BME280;58908;51.426;7.714;2023-03-24T05:55:44;98254.25;;;11.06;100.00
71195;BME280;58908;51.426;7.714;2023-03-24T05:58:11;98265.88;;;11.03;100.00
71195;BME280;58908;51.426;7.714;2023-03-24T06:00:39;98260.03;;;11.00;100.00
71195;BME280;58908;51.426;7.714;2023-03-24T06:03:07;98249.97;;;10.94;100.00
71195;BME280;58908;51.426;7.714;2023-03-24T06:05:35;98256.22;;;10.93;100.00
71195;BME280;58908;51.426;7.714;2023-03-24T06:08:02;98263.53;;;10.89;100.00
71195;BME280;58908;51.426;7.714;2023-03-24T06:10:28;98272.09;;;10.82;100.00
71195;BME280;58908;51.426;7.714;2023-03-24T06:12:54;98286.63;;;10.76;100.00
71195;BME280;58908;51.426;7.714;2023-03-24T06:15:21;98279.78;;;10.74;100.00
71195;BME280;58908;51.426;7.714;2023-03-24T06:17:51;98281.94;;;10.80;100.00
71195;BME280;58908;51.426;7.714;2023-03-24T06:20:20;98284.38;;;10.92;100.00
71195;BME280;58908;51.426;7.714;2023-03-24T06:22:46;98283.44;;;10.93;100.00
71195;BME280;58908;51.426;7.714;2023-03-24T06:25:14;98296.63;;;10.93;100.00
71195;BME280;58908;51.426;7.714;2023-03-24T06:27:41;98290.81;;;11.10;100.00
71195;BME280;58908;51.426;7.714;2023-03-24T06:30:10;98305.56;;;11.33;100.00
71195;BME280;58908;51.426;7.714;2023-03-24T06:32:37;98307.72;;;11.08;100.00
71195;BME280;58908;51.426;7.714;2023-03-24T06:35:03;98317.72;;;10.93;100.00
71195;BME280;58908;51.426;7.714;2023-03-24T06:37:32;98310.34;;;11.08;100.00
71195;BME280;58908;51.426;7.714;2023-03-24T06:39:58;98300.31;;;11.33;100.00
71195;BME280;58908;51.426;7.714;2023-03-24T06:42:25;98291.00;;;10.87;100.00
71195;BME280;58908;51.426;7.714;2023-03-24T06:44:52;98309.63;;;10.85;100.00
71195;BME280;58908;51.426;7.714;2023-03-24T06:47:18;98320.91;;;10.65;100.00
71195;BME280;58908;51.426;7.714;2023-03-24T06:49:44;98336.66;;;10.56;100.00
71195;BME280;58908;51.426;7.714;2023-03-24T06:52:10;98345.13;;;10.70;100.00
71195;BME280;58908;51.426;7.714;2023-03-24T06:54:38;98336.41;;;11.33;100.00
71195;BME280;58908;51.426;7.714;2023-03-24T06:57:04;98349.38;;;11.36;100.00
71195;BME280;58908;51.426;7.714;2023-03-24T06:59:30;98333.69;;;11.23;100.00
71195;BME280;58908;51.426;7.714;2023-03-24T07:01:57;98337.84;;;12.18;100.00
71195;BME280;58908;51.426;7.714;2023-03-24T07:04:23;98351.03;;;13.46;100.00
71195;BME280;58908;51.426;7.714;2023-03-24T07:06:50;98357.78;;;14.15;100.00
71195;BME280;58908;51.426;7.714;2023-03-24T07:09:17;98354.38;;;14.68;100.00
71195;BME280;58908;51.426;7.714;2023-03-24T07:11:45;98359.56;;;14.70;100.00
71195;BME280;58908;51.426;7.714;2023-03-24T07:14:11;98370.66;;;13.53;100.00
71195;BME280;58908;51.426;7.714;2023-03-24T07:16:37;98379.47;;;13.73;100.00
71195;BME280;58908;51.426;7.714;2023-03-24T07:19:03;98375.25;;;13.32;100.00
71195;BME280;58908;51.426;7.714;2023-03-24T07:21:30;98380.97;;;13.18;100.00
71195;BME280;58908;51.426;7.714;2023-03-24T07:23:56;98384.50;;;11.99;100.00
71195;BME280;58908;51.426;7.714;2023-03-24T07:26:22;98403.41;;;11.63;100.00
71195;BME280;58908;51.426;7.714;2023-03-24T07:28:50;98406.81;;;11.43;100.00
71195;BME280;58908;51.426;7.714;2023-03-24T07:31:16;98413.56;;;11.99;100.00
71195;BME280;58908;51.426;7.714;2023-03-24T07:33:42;98414.59;;;12.28;100.00
71195;BME280;58908;51.426;7.714;2023-03-24T07:36:08;98432.69;;;11.18;100.00
71195;BME280;58908;51.426;7.714;2023-03-24T07:38:35;98440.59;;;11.29;100.00
71195;BME280;58908;51.426;7.714;2023-03-24T07:41:01;98434.59;;;11.27;100.00
71195;BME280;58908;51.426;7.714;2023-03-24T07:43:28;98422.78;;;11.42;100.00
71195;BME280;58908;51.426;7.714;2023-03-24T07:45:55;98424.13;;;11.79;100.00
71195;BME280;58908;51.426;7.714;2023-03-24T07:48:22;98415.66;;;11.64;100.00
71195;BME280;58908;51.426;7.714;2023-03-24T07:50:48;98425.19;;;11.45;100.00
71195;BME280;58908;51.426;7.714;2023-03-24T07:53:14;98429.09;;;11.93;100.00
71195;BME280;58908;51.426;7.714;2023-03-24T07:55:43;98434.84;;;12.98;98.97
71195;BME280;58908;51.426;7.714;2023-03-24T07:58:10;98436.94;;;12.44;95.90
71195;BME280;58908;51.426;7.714;2023-03-24T08:00:36;98438.34;;;12.99;92.79
71195;BME280;58908;51.426;7.714;2023-03-24T08:03:04;98433.19;;;11.86;99.43
71195;BME280;58908;51.426;7.714;2023-03-24T08:05:33;98454.53;;;11.09;100.00
71195;BME280;58908;51.426;7.714;2023-03-24T08:08:01;98456.63;;;10.50;100.00
71195;BME280;58908;51.426;7.714;2023-03-24T08:10:29;98453.69;;;10.31;100.00
71195;BME280;58908;51.426;7.714;2023-03-24T08:12:55;98466.63;;;10.23;100.00
71195;BME280;58908;51.426;7.714;2023-03-24T08:15:22;98470.47;;;11.29;100.00
71195;BME280;58908;51.426;7.714;2023-03-24T08:17:49;98471.22;;;10.98;100.00
71195;BME280;58908;51.426;7.714;2023-03-24T08:20:17;98464.94;;;12.06;100.00
71195;BME280;58908;51.426;7.714;2023-03-24T08:22:45;98470.00;;;11.78;100.00
71195;BME280;58908;51.426;7.714;2023-03-24T08:25:14;98461.91;;;12.31;98.95
71195;BME280;58908;51.426;7.714;2023-03-24T08:27:40;98468.84;;;12.73;95.96
71195;BME280;58908;51.426;7.714;2023-03-24T08:30:09;98464.69;;;12.80;91.33
71195;BME280;58908;51.426;7.714;2023-03-24T08:32:36;98462.75;;;13.70;90.21
71195;BME280;58908;51.426;7.714;2023-03-24T08:35:02;98440.63;;;14.55;84.06
71195;BME280;58908;51.426;7.714;2023-03-24T08:37:30;98450.81;;;14.59;82.19
71195;BME280;58908;51.426;7.714;2023-03-24T08:39:56;98444.59;;;14.13;80.16
71195;BME280;58908;51.426;7.714;2023-03-24T08:42:30;98441.69;;;13.78;81.64
71195;BME280;58908;51.426;7.714;2023-03-24T08:44:56;98445.13;;;13.41;85.75
71195;BME280;58908;51.426;7.714;2023-03-24T08:47:23;98441.97;;;14.23;85.28
71195;BME280;58908;51.426;7.714;2023-03-24T08:49:49;98440.50;;;14.93;80.76
71195;BME280;58908;51.426;7.714;2023-03-24T08:52:16;98443.41;;;14.63;80.85
71195;BME280;58908;51.426;7.714;2023-03-24T08:54:43;98452.91;;;15.02;82.01
71195;BME280;58908;51.426;7.714;2023-03-24T08:57:09;98453.34;;;15.34;77.13
71195;BME280;58908;51.426;7.714;2023-03-24T08:59:36;98438.09;;;15.53;74.29
71195;BME280;58908;51.426;7.714;2023-03-24T09:02:02;98451.38;;;16.23;73.51
71195;BME280;58908;51.426;7.714;2023-03-24T09:04:28;98452.06;;;16.08;72.24
71195;BME280;58908;51.426;7.714;2023-03-24T09:06:54;98461.69;;;16.01;72.14
71195;BME280;58908;51.426;7.714;2023-03-24T09:09:24;98465.38;;;14.08;78.79
71195;BME280;58908;51.426;7.714;2023-03-24T09:11:51;98453.41;;;13.08;81.26
71195;BME280;58908;51.426;7.714;2023-03-24T09:14:17;98448.78;;;13.68;81.71
71195;BME280;58908;51.426;7.714;2023-03-24T09:16:46;98451.59;;;14.24;80.34
71195;BME280;58908;51.426;7.714;2023-03-24T09:19:12;98455.03;;;16.22;73.99
71195;BME280;58908;51.426;7.714;2023-03-24T09:21:38;98445.69;;;16.18;71.98
71195;BME280;58908;51.426;7.714;2023-03-24T09:24:07;98449.06;;;16.63;71.21
71195;BME280;58908;51.426;7.714;2023-03-24T09:26:33;98459.94;;;15.47;70.30
71195;BME280;58908;51.426;7.714;2023-03-24T09:29:01;98465.56;;;14.81;73.84
71195;BME280;58908;51.426;7.714;2023-03-24T09:31:27;98461.19;;;13.96;77.05
71195;BME280;58908;51.426;7.714;2023-03-24T09:33:54;98468.53;;;15.41;73.02
71195;BME280;58908;51.426;7.714;2023-03-24T09:36:20;98458.81;;;16.20;71.44
71195;BME280;58908;51.426;7.714;2023-03-24T09:38:46;98469.44;;;15.50;72.33
71195;BME280;58908;51.426;7.714;2023-03-24T09:41:13;98468.19;;;16.24;68.95
71195;BME280;58908;51.426;7.714;2023-03-24T09:43:42;98473.47;;;15.00;70.94
71195;BME280;58908;51.426;7.714;2023-03-24T09:46:12;98478.31;;;15.68;69.07
71195;BME280;58908;51.426;7.714;2023-03-24T09:48:41;98470.91;;;15.08;70.08
71195;BME280;58908;51.426;7.714;2023-03-24T09:51:09;98476.31;;;14.79;71.71
71195;BME280;58908;51.426;7.714;2023-03-24T09:53:39;98480.56;;;15.80;69.72
71195;BME280;58908;51.426;7.714;2023-03-24T09:56:13;98484.66;;;14.94;71.93
71195;BME280;58908;51.426;7.714;2023-03-24T09:58:41;98476.44;;;14.23;71.49
71195;BME280;58908;51.426;7.714;2023-03-24T10:01:11;98475.00;;;14.56;71.38
71195;BME280;58908;51.426;7.714;2023-03-24T10:03:39;98482.03;;;14.39;73.46
71195;BME280;58908;51.426;7.714;2023-03-24T10:06:06;98485.28;;;13.46;74.25
71195;BME280;58908;51.426;7.714;2023-03-24T10:08:34;98490.88;;;13.43;73.90
71195;BME280;58908;51.426;7.714;2023-03-24T10:11:02;98483.91;;;13.51;76.50
71195;BME280;58908;51.426;7.714;2023-03-24T10:13:31;98489.03;;;13.34;74.98
71195;BME280;58908;51.426;7.714;2023-03-24T10:16:03;98496.72;;;13.46;77.05
71195;BME280;58908;51.426;7.714;2023-03-24T10:18:34;98493.97;;;13.57;77.43
71195;BME280;58908;51.426;7.714;2023-03-24T10:21:04;98498.59;;;13.93;78.20
71195;BME280;58908;51.426;7.714;2023-03-24T10:23:33;98496.94;;;14.02;75.40
71195;BME280;58908;51.426;7.714;2023-03-24T10:26:02;98504.59;;;14.05;75.42
71195;BME280;58908;51.426;7.714;2023-03-24T10:28:32;98498.88;;;14.09;73.01
71195;BME280;58908;51.426;7.714;2023-03-24T10:31:02;98507.00;;;14.08;75.57
71195;BME280;58908;51.426;7.714;2023-03-24T10:33:30;98503.59;;;13.68;74.66
71195;BME280;58908;51.426;7.714;2023-03-24T10:35:59;98509.41;;;13.43;74.12
71195;BME280;58908;51.426;7.714;2023-03-24T10:38:26;98517.78;;;13.48;73.40
71195;BME280;58908;51.426;7.714;2023-03-24T10:40:53;98526.06;;;13.24;75.69
71195;BME280;58908;51.426;7.714;2023-03-24T10:43:20;98508.22;;;13.17;76.04
71195;BME280;58908;51.426;7.714;2023-03-24T10:45:47;98518.34;;;13.12;75.37
71195;BME280;58908;51.426;7.714;2023-03-24T10:50:56;98528.78;;;13.43;75.49
71195;BME280;58908;51.426;7.714;2023-03-24T10:53:25;98523.06;;;13.08;73.86
71195;BME280;58908;51.426;7.714;2023-03-24T10:55:51;98508.53;;;13.33;73.74
71195;BME280;58908;51.426;7.714;2023-03-24T10:58:19;98519.31;;;13.11;72.16
71195;BME280;58908;51.426;7.714;2023-03-24T11:00:46;98524.13;;;12.96;74.08
71195;BME280;58908;51.426;7.714;2023-03-24T11:03:13;98515.41;;;12.85;74.79
71195;BME280;58908;51.426;7.714;2023-03-24T11:05:41;98523.09;;;12.88;74.98
71195;BME280;58908;51.426;7.714;2023-03-24T11:08:13;98526.97;;;12.63;75.62
71195;BME280;58908;51.426;7.714;2023-03-24T11:10:46;98525.34;;;12.92;74.48
71195;BME280;58908;51.426;7.714;2023-03-24T11:13:15;98526.78;;;13.26;73.71
71195;BME280;58908;51.426;7.714;2023-03-24T11:15:52;98522.75;;;14.00;71.75
71195;BME280;58908;51.426;7.714;2023-03-24T11:18:19;98522.91;;;14.08;70.07
71195;BME280;58908;51.426;7.714;2023-03-24T11:20:46;98526.78;;;13.85;71.44
71195;BME280;58908;51.426;7.714;2023-03-24T11:23:17;98531.75;;;13.59;72.58
71195;BME280;58908;51.426;7.714;2023-03-24T11:25:46;98519.75;;;13.55;71.62
71195;BME280;58908;51.426;7.714;2023-03-24T11:28:15;98531.06;;;13.57;71.01
71195;BME280;58908;51.426;7.714;2023-03-24T11:30:44;98529.13;;;13.69;71.47
71195;BME280;58908;51.426;7.714;2023-03-24T11:33:12;98534.41;;;13.59;70.89
71195;BME280;58908;51.426;7.714;2023-03-24T11:35:40;98531.97;;;13.37;70.46
71195;BME280;58908;51.426;7.714;2023-03-24T11:38:06;98535.50;;;13.47;71.39
71195;BME280;58908;51.426;7.714;2023-03-24T11:40:33;98536.97;;;13.31;72.96
71195;BME280;58908;51.426;7.714;2023-03-24T11:43:00;98554.22;;;13.25;75.06
71195;BME280;58908;51.426;7.714;2023-03-24T11:45:29;98554.22;;;13.25;73.73
71195;BME280;58908;51.426;7.714;2023-03-24T11:47:59;98553.88;;;13.49;74.38
71195;BME280;58908;51.426;7.714;2023-03-24T11:50:27;98548.06;;;13.55;72.98
71195;BME280;58908;51.426;7.714;2023-03-24T11:52:55;98556.72;;;13.66;70.95
71195;BME280;58908;51.426;7.714;2023-03-24T11:55:27;98531.56;;;13.42;70.18
71195;BME280;58908;51.426;7.714;2023-03-24T11:57:58;98550.03;;;13.23;69.52
71195;BME280;58908;51.426;7.714;2023-03-24T12:00:29;98546.03;;;13.38;70.58
71195;BME280;58908;51.426;7.714;2023-03-24T12:03:12;98545.03;;;13.29;68.07
71195;BME280;58908;51.426;7.714;2023-03-24T12:05:44;98534.03;;;13.34;67.60
71195;BME280;58908;51.426;7.714;2023-03-24T12:08:17;98551.19;;;13.30;68.88
71195;BME280;58908;51.426;7.714;2023-03-24T12:10:49;98530.41;;;13.35;67.86
71195;BME280;58908;51.426;7.714;2023-03-24T12:13:22;98552.59;;;13.34;68.37
71195;BME280;58908;51.426;7.714;2023-03-24T12:15:58;98549.75;;;13.65;69.24
71195;BME280;58908;51.426;7.714;2023-03-24T12:21:14;98542.81;;;13.83;70.00
71195;BME280;58908;51.426;7.714;2023-03-24T12:23:46;98528.47;;;14.05;68.71
71195;BME280;58908;51.426;7.714;2023-03-24T12:26:17;98537.69;;;14.10;68.27
71195;BME280;58908;51.426;7.714;2023-03-24T12:28:50;98533.34;;;14.00;68.25
71195;BME280;58908;51.426;7.714;2023-03-24T12:31:27;98539.50;;;14.10;69.00
71195;BME280;58908;51.426;7.714;2023-03-24T12:34:01;98534.22;;;14.19;67.19
71195;BME280;58908;51.426;7.714;2023-03-24T12:36:33;98537.56;;;14.02;68.98
71195;BME280;58908;51.426;7.714;2023-03-24T12:39:05;98535.56;;;13.85;69.59
71195;BME280;58908;51.426;7.714;2023-03-24T12:41:50;98539.47;;;13.81;69.32
71195;BME280;58908;51.426;7.714;2023-03-24T12:44:29;98531.34;;;13.73;69.17
71195;BME280;58908;51.426;7.714;2023-03-24T12:47:02;98529.22;;;13.58;68.88
71195;BME280;58908;51.426;7.714;2023-03-24T12:49:38;98533.00;;;13.55;68.83
71195;BME280;58908;51.426;7.714;2023-03-24T12:52:13;98532.78;;;13.38;68.46
71195;BME280;58908;51.426;7.714;2023-03-24T12:54:43;98521.44;;;13.56;69.32
71195;BME280;58908;51.426;7.714;2023-03-24T12:57:11;98512.94;;;13.72;66.74
71195;BME280;58908;51.426;7.714;2023-03-24T12:59:40;98518.00;;;13.94;66.77
71195;BME280;58908;51.426;7.714;2023-03-24T13:02:11;98506.28;;;13.87;65.38
71195;BME280;58908;51.426;7.714;2023-03-24T13:04:41;98505.44;;;14.05;65.88
71195;BME280;58908;51.426;7.714;2023-03-24T13:07:10;98505.03;;;14.00;65.98
71195;BME280;58908;51.426;7.714;2023-03-24T13:09:44;98508.78;;;13.88;65.06
71195;BME280;58908;51.426;7.714;2023-03-24T13:12:14;98504.44;;;13.78;65.63
71195;BME280;58908;51.426;7.714;2023-03-24T13:14:45;98503.47;;;13.79;65.22
71195;BME280;58908;51.426;7.714;2023-03-24T13:17:16;98510.97;;;13.64;66.27
71195;BME280;58908;51.426;7.714;2023-03-24T13:19:45;98509.88;;;13.67;67.58
71195;BME280;58908;51.426;7.714;2023-03-24T13:22:14;98510.59;;;13.88;66.03